Airfield :
LOGIN :

Register | Disclaimer

   EN    FR    IT 

 










Legend :    VFR   Marginal VFR   IFR   Intensive IFR   Very Intensive IFR
Visi :
Ceiling :
>= 8 km
>= 3000ft
5 to 8 km
1000 to 3000 ft
1500m to 5 km
500 to 1000 ft
800 to 1500m
200 to 500 ft
< 800m
< 200 ft
Symbols :   Thunderstorms  Fog  Heavy snow  Heavy precipitations  Wind > 20 kt
SIGMETs :     Misc.  Thunderstorms  Icing  Turbulence  Mountain Waves  Volcanic Ashes






- Airport Elevation : 7 ft
- IATA code : XHE


LFTH - Hyeres

CURRENT METAR :
  • 062130Z AUTO 04003KT CAVOK 24/17 Q1015 NOSIG

EXPIRED METARs :
  • 062100Z AUTO 30004KT CAVOK 24/17 Q1015 NOSIG
  • 062030Z AUTO 26003KT CAVOK 25/18 Q1015 NOSIG
  • 062000Z AUTO VRB02KT CAVOK 25/19 Q1015 NOSIG
  • 061930Z AUTO VRB03KT CAVOK 25/19 Q1015 NOSIG
  • 061900Z AUTO 11004KT CAVOK 26/19 Q1014 NOSIG

TAF TAF LFTH
Valid from the 06 at 21:00 until the 07 at 21:00 UTC


062000Z 0621/0721 VRB03KT CAVOK
BECMG 0709/0711 12010KT
BECMG 0712/0714 20010KT
BECMG 0718/0720 VRB03KT



MET'MAP, your aeronautical weather chart ! - Copyright ORBIFLY December 2007 - Disclaimer

ORBIFLY MET'MAP TEAM :

Programming & Development : Alexandra Zaïnal
Original concept : Baudouin d'Aumeries
Technical & hardware support : Manuel Goepfert
Assistance : Marc-Olivier Méhu




SOURCES & CREDITS :

   NOAA